createdAt,value
2022-10-07T00:01:12.688Z,12.70
2022-10-07T00:03:41.899Z,11.13
2022-10-07T00:06:14.204Z,9.87
2022-10-07T00:08:45.044Z,8.80
2022-10-07T00:11:16.445Z,11.10
2022-10-07T00:13:46.928Z,8.83
2022-10-07T00:16:17.327Z,9.37
2022-10-07T00:18:46.069Z,13.13
2022-10-07T00:21:16.740Z,10.27
2022-10-07T00:23:46.209Z,8.18
2022-10-07T00:26:17.810Z,8.00
2022-10-07T00:28:46.388Z,8.83
2022-10-07T00:31:16.275Z,11.05
2022-10-07T00:33:44.913Z,9.57
2022-10-07T00:36:17.808Z,12.70
2022-10-07T00:38:46.471Z,9.63
2022-10-07T00:41:19.736Z,9.07
2022-10-07T00:43:48.597Z,11.03
2022-10-07T00:46:26.907Z,11.40
2022-10-07T00:48:56.715Z,11.68
2022-10-07T00:51:25.163Z,11.18
2022-10-07T00:53:55.277Z,9.27
2022-10-07T00:56:26.513Z,12.63
2022-10-07T00:58:54.926Z,10.10
2022-10-07T01:01:23.187Z,9.03
2022-10-07T01:03:51.658Z,10.57
2022-10-07T01:06:20.011Z,10.02
2022-10-07T01:08:50.545Z,10.20
2022-10-07T01:11:31.945Z,9.73
2022-10-07T01:14:08.070Z,10.80
2022-10-07T01:16:47.842Z,12.17
2022-10-07T01:19:34.863Z,12.18
2022-10-07T01:22:16.582Z,9.70
2022-10-07T01:24:55.359Z,11.73
2022-10-07T01:27:26.980Z,12.48
2022-10-07T01:29:59.390Z,12.75
2022-10-07T01:32:32.894Z,10.53
2022-10-07T01:35:03.104Z,14.90
2022-10-07T01:37:36.634Z,10.13
2022-10-07T01:40:08.681Z,10.67
2022-10-07T01:42:38.894Z,13.23
2022-10-07T01:45:11.860Z,10.33
2022-10-07T01:47:41.198Z,9.60
2022-10-07T01:50:13.555Z,11.77
2022-10-07T01:52:55.861Z,9.73
2022-10-07T01:55:43.999Z,10.10
2022-10-07T01:58:37.577Z,9.10
2022-10-07T02:01:15.653Z,12.47
2022-10-07T02:04:04.216Z,10.80
2022-10-07T02:06:41.125Z,9.87
2022-10-07T02:09:21.810Z,9.10
2022-10-07T02:11:56.780Z,9.63
2022-10-07T02:14:31.706Z,14.77
2022-10-07T02:17:04.593Z,11.23
2022-10-07T02:19:36.006Z,10.93
2022-10-07T02:22:06.211Z,10.27
2022-10-07T02:24:37.192Z,10.73
2022-10-07T02:27:09.659Z,9.77
2022-10-07T02:29:43.144Z,10.03
2022-10-07T02:32:14.519Z,9.67
2022-10-07T02:34:46.104Z,8.93
2022-10-07T02:37:19.129Z,10.67
2022-10-07T02:39:47.785Z,8.93
2022-10-07T02:42:25.402Z,11.03
2022-10-07T02:44:58.342Z,8.50
2022-10-07T02:47:32.853Z,8.60
2022-10-07T02:50:05.135Z,10.80
2022-10-07T02:52:35.498Z,10.20
2022-10-07T02:55:07.819Z,10.33
2022-10-07T02:57:40.844Z,10.67
2022-10-07T03:00:12.124Z,13.47
2022-10-07T03:02:45.870Z,9.63
2022-10-07T03:05:19.397Z,12.70
2022-10-07T03:07:48.579Z,9.33
2022-10-07T03:10:17.576Z,9.87
2022-10-07T03:12:45.961Z,12.13
2022-10-07T03:15:15.706Z,11.73
2022-10-07T03:17:44.096Z,10.57
2022-10-07T03:20:15.264Z,11.77
2022-10-07T03:22:43.641Z,9.17
2022-10-07T03:25:12.729Z,8.93
2022-10-07T03:27:42.567Z,10.67
2022-10-07T03:30:12.172Z,8.77
2022-10-07T03:32:42.502Z,10.60
2022-10-07T03:35:11.200Z,9.17
2022-10-07T03:37:39.358Z,9.23
2022-10-07T03:40:08.145Z,8.90
2022-10-07T03:42:36.342Z,9.33
2022-10-07T03:45:06.670Z,12.17
2022-10-07T03:47:35.766Z,11.90
2022-10-07T03:50:06.054Z,12.97
2022-10-07T03:52:36.719Z,10.07
2022-10-07T03:55:05.043Z,11.43
2022-10-07T03:57:55.470Z,8.87
2022-10-07T04:00:28.260Z,10.97
2022-10-07T04:02:56.576Z,10.43
2022-10-07T04:05:26.262Z,8.27
2022-10-07T04:07:54.737Z,8.43
2022-10-07T04:10:23.119Z,11.53
2022-10-07T04:12:52.330Z,9.83
2022-10-07T04:15:21.311Z,11.97
2022-10-07T04:17:50.340Z,11.50
2022-10-07T04:20:19.895Z,11.17
2022-10-07T04:22:49.430Z,22.43
2022-10-07T04:25:36.242Z,10.47
2022-10-07T04:28:06.617Z,9.87
2022-10-07T04:30:40.582Z,9.03
2022-10-07T04:33:08.828Z,10.83
2022-10-07T04:35:39.126Z,9.83
2022-10-07T04:38:10.191Z,11.20
2022-10-07T04:40:42.010Z,9.37
2022-10-07T04:43:27.437Z,9.70
2022-10-07T04:46:02.627Z,9.97
2022-10-07T04:48:31.082Z,10.83
2022-10-07T04:51:03.205Z,11.53
2022-10-07T04:53:33.507Z,9.97
2022-10-07T04:56:01.935Z,9.37
2022-10-07T04:58:30.926Z,10.63
2022-10-07T05:01:00.524Z,10.83
2022-10-07T05:03:30.473Z,8.57
2022-10-07T05:06:05.768Z,10.87
2022-10-07T05:08:35.706Z,10.63
2022-10-07T05:11:04.786Z,11.33
2022-10-07T05:13:34.306Z,8.90
2022-10-07T05:16:03.860Z,15.70
2022-10-07T05:18:33.771Z,9.53
2022-10-07T05:21:06.125Z,12.27
2022-10-07T05:23:37.160Z,10.57
2022-10-07T05:26:08.820Z,10.03
2022-10-07T05:28:37.634Z,10.53
2022-10-07T05:31:08.131Z,11.53
2022-10-07T05:33:37.450Z,8.40
2022-10-07T05:36:06.626Z,12.40
2022-10-07T05:38:36.897Z,10.47
2022-10-07T05:41:07.213Z,9.17
2022-10-07T05:43:37.989Z,10.77
2022-10-07T05:46:08.597Z,13.77
2022-10-07T05:48:39.568Z,11.27
2022-10-07T05:51:08.240Z,11.30
2022-10-07T05:53:41.213Z,8.33
2022-10-07T05:56:15.875Z,9.27
2022-10-07T05:58:44.696Z,9.50
2022-10-07T06:01:16.126Z,9.30
2022-10-07T06:03:45.844Z,8.77
2022-10-07T06:06:13.978Z,12.87
2022-10-07T06:08:43.483Z,13.27
2022-10-07T06:11:31.086Z,10.07
2022-10-07T06:13:59.482Z,21.27
2022-10-07T06:16:28.646Z,9.37
2022-10-07T06:18:57.722Z,9.83
2022-10-07T06:21:28.282Z,9.27
2022-10-07T06:23:59.103Z,12.10
2022-10-07T06:26:27.265Z,8.30
2022-10-07T06:28:55.640Z,11.57
2022-10-07T06:31:25.791Z,8.77
2022-10-07T06:33:55.166Z,12.80
2022-10-07T06:36:23.767Z,9.83
2022-10-07T06:38:53.412Z,10.60
2022-10-07T06:41:23.938Z,7.57
2022-10-07T06:43:57.276Z,8.70
2022-10-07T06:46:25.626Z,10.63
2022-10-07T06:48:53.883Z,9.17
2022-10-07T06:51:22.952Z,7.40
2022-10-07T06:53:54.240Z,11.53
2022-10-07T06:56:23.878Z,7.33
2022-10-07T06:58:52.042Z,10.40
2022-10-07T07:01:20.404Z,8.73
2022-10-07T07:03:48.926Z,8.87
2022-10-07T07:06:17.112Z,9.90
2022-10-07T07:08:46.025Z,8.38
2022-10-07T07:11:33.216Z,11.93
2022-10-07T07:14:03.880Z,10.50
2022-10-07T07:16:32.864Z,7.40
2022-10-07T07:19:03.183Z,7.20
2022-10-07T07:21:31.702Z,9.73
2022-10-07T07:24:01.325Z,9.30
2022-10-07T07:26:29.944Z,6.78
2022-10-07T07:28:59.963Z,9.48
2022-10-07T07:31:32.115Z,8.57
2022-10-07T07:34:02.120Z,8.50
2022-10-07T07:36:33.208Z,7.20
2022-10-07T07:39:03.426Z,8.00
2022-10-07T07:41:34.391Z,7.38
2022-10-07T07:44:05.496Z,7.45
2022-10-07T07:46:41.318Z,6.93
2022-10-07T07:49:12.029Z,7.50
2022-10-07T07:51:42.527Z,7.70
2022-10-07T07:54:10.896Z,7.15
2022-10-07T07:56:39.445Z,9.82
2022-10-07T07:59:09.045Z,6.57
2022-10-07T08:01:39.099Z,6.70
2022-10-07T08:04:07.474Z,6.65
2022-10-07T08:06:35.805Z,6.55
2022-10-07T08:09:04.506Z,9.93
2022-10-07T08:11:33.366Z,6.95
2022-10-07T08:14:03.467Z,8.23
2022-10-07T08:16:32.291Z,7.50
2022-10-07T08:19:02.102Z,8.52
2022-10-07T08:21:33.128Z,7.60
2022-10-07T08:24:03.041Z,8.43
2022-10-07T08:26:33.226Z,9.65
2022-10-07T08:29:01.645Z,7.07
2022-10-07T08:31:31.095Z,5.35
2022-10-07T08:34:02.445Z,6.47
2022-10-07T08:36:33.742Z,7.60
2022-10-07T08:39:03.287Z,7.28
2022-10-07T08:41:51.598Z,7.53
2022-10-07T08:44:29.942Z,7.47
2022-10-07T08:47:06.879Z,8.23
2022-10-07T08:49:53.925Z,17.80
2022-10-07T08:52:36.571Z,23.45
2022-10-07T08:55:15.229Z,22.60
2022-10-07T08:57:54.884Z,24.67
2022-10-07T09:00:24.985Z,13.48
2022-10-07T09:03:08.270Z,11.63
2022-10-07T09:05:41.565Z,15.70
2022-10-07T09:08:15.454Z,8.02
2022-10-07T09:10:48.664Z,9.68
2022-10-07T09:13:22.119Z,9.30
2022-10-07T09:15:55.757Z,8.50
2022-10-07T09:18:27.845Z,10.98
2022-10-07T09:20:58.189Z,9.52
2022-10-07T09:23:30.212Z,7.28
2022-10-07T09:25:58.888Z,8.45
2022-10-07T09:28:30.301Z,8.68
2022-10-07T09:31:03.337Z,6.32
2022-10-07T09:33:32.049Z,10.85
2022-10-07T09:36:10.568Z,7.57
2022-10-07T09:38:41.025Z,8.32
2022-10-07T09:41:19.563Z,5.70
2022-10-07T09:44:03.849Z,7.93
2022-10-07T09:46:46.799Z,5.28
2022-10-07T09:49:35.383Z,6.88
2022-10-07T09:52:07.491Z,8.63
2022-10-07T09:54:37.373Z,7.22
2022-10-07T09:57:06.969Z,6.63
2022-10-07T09:59:36.825Z,5.82
2022-10-07T10:02:21.896Z,6.82
2022-10-07T10:04:52.602Z,7.80
2022-10-07T10:07:27.593Z,6.45
2022-10-07T10:09:58.150Z,7.05
2022-10-07T10:12:27.174Z,5.70
2022-10-07T10:14:56.890Z,5.88
2022-10-07T10:17:40.951Z,10.68
2022-10-07T10:20:31.637Z,4.43
2022-10-07T10:23:02.891Z,4.80
2022-10-07T10:26:05.528Z,5.88
2022-10-07T10:28:44.975Z,4.53
2022-10-07T10:31:25.103Z,5.40
2022-10-07T10:33:59.750Z,6.32
2022-10-07T10:36:31.968Z,4.75
2022-10-07T10:39:05.187Z,5.95
2022-10-07T10:41:38.699Z,6.97
2022-10-07T10:44:27.279Z,6.18
2022-10-07T10:47:04.108Z,7.75
2022-10-07T10:49:38.810Z,6.57
2022-10-07T10:52:32.447Z,5.80
2022-10-07T10:55:28.368Z,4.75
2022-10-07T10:58:07.876Z,4.70
2022-10-07T11:00:45.677Z,7.57
2022-10-07T11:03:26.877Z,7.47
2022-10-07T11:05:56.994Z,6.43
2022-10-07T11:08:36.979Z,8.65
2022-10-07T11:11:11.886Z,6.18
2022-10-07T11:13:46.898Z,4.07
2022-10-07T11:16:20.478Z,5.00
2022-10-07T11:18:53.094Z,5.53
2022-10-07T11:21:25.329Z,4.43
2022-10-07T11:24:02.286Z,6.95
2022-10-07T11:26:37.707Z,9.43
2022-10-07T11:29:16.517Z,7.05
2022-10-07T11:31:51.359Z,5.97
2022-10-07T11:34:25.080Z,5.55
2022-10-07T11:37:03.094Z,8.63
2022-10-07T11:39:31.620Z,7.95
2022-10-07T11:42:05.359Z,6.75
2022-10-07T11:44:38.604Z,4.53
2022-10-07T11:47:11.198Z,8.25
2022-10-07T11:49:45.586Z,8.70
2022-10-07T11:52:23.402Z,8.30
2022-10-07T11:54:59.549Z,7.80
2022-10-07T11:57:33.880Z,6.22
2022-10-07T12:00:06.192Z,6.43
2022-10-07T12:02:44.076Z,4.53
2022-10-07T12:05:50.019Z,5.65
2022-10-07T12:08:33.500Z,4.35
2022-10-07T12:11:44.689Z,5.07
2022-10-07T12:14:41.300Z,6.72
2022-10-07T12:17:23.685Z,9.20
2022-10-07T12:20:34.466Z,6.53
2022-10-07T12:23:37.415Z,4.57
2022-10-07T12:26:26.710Z,9.25
2022-10-07T12:28:55.832Z,4.85
2022-10-07T12:31:48.679Z,5.28
2022-10-07T12:34:28.036Z,4.82
2022-10-07T12:37:34.983Z,5.05
2022-10-07T12:40:11.689Z,6.07
2022-10-07T12:42:47.316Z,7.07
2022-10-07T12:45:16.806Z,4.50
2022-10-07T12:47:47.932Z,5.05
2022-10-07T12:50:19.002Z,5.07
2022-10-07T12:52:52.932Z,4.65
2022-10-07T12:55:29.184Z,6.28
2022-10-07T12:58:19.526Z,4.85
2022-10-07T13:01:04.119Z,5.53
2022-10-07T13:04:13.867Z,4.85
2022-10-07T13:07:36.119Z,4.15
2022-10-07T13:10:29.485Z,4.00
2022-10-07T13:13:03.438Z,5.38
2022-10-07T13:15:41.312Z,4.05
2022-10-07T13:18:18.199Z,5.10
2022-10-07T13:21:03.682Z,4.55
2022-10-07T13:23:32.933Z,4.97
2022-10-07T13:26:03.193Z,4.60
2022-10-07T13:28:45.106Z,4.40
2022-10-07T13:31:20.349Z,3.47
2022-10-07T13:33:49.769Z,4.15
2022-10-07T13:36:23.023Z,4.65
2022-10-07T13:38:53.738Z,3.63
2022-10-07T13:41:26.150Z,8.80
2022-10-07T13:43:57.714Z,3.97
2022-10-07T13:46:27.681Z,4.80
2022-10-07T13:48:57.132Z,7.32
2022-10-07T13:51:31.259Z,4.68
2022-10-07T13:54:00.728Z,3.95
2022-10-07T13:56:33.670Z,4.45
2022-10-07T13:59:03.717Z,4.88
2022-10-07T14:01:33.369Z,7.47
2022-10-07T14:04:03.552Z,6.65
2022-10-07T14:06:43.778Z,4.45
2022-10-07T14:09:24.797Z,4.70
2022-10-07T14:11:56.582Z,6.10
2022-10-07T14:14:28.314Z,5.43
2022-10-07T14:16:59.233Z,8.02
2022-10-07T14:19:33.425Z,5.25
2022-10-07T14:22:05.827Z,6.38
2022-10-07T14:24:34.045Z,5.53
2022-10-07T14:27:02.286Z,6.30
2022-10-07T14:29:37.905Z,5.90
2022-10-07T14:32:38.874Z,5.32
2022-10-07T14:35:22.111Z,6.35
2022-10-07T14:37:51.837Z,5.47
2022-10-07T14:40:23.526Z,6.90
2022-10-07T14:42:54.587Z,5.43
2022-10-07T14:45:23.831Z,4.07
2022-10-07T14:47:52.477Z,8.63
2022-10-07T14:50:20.742Z,5.70
2022-10-07T14:52:52.739Z,4.15
2022-10-07T14:55:24.507Z,6.63
2022-10-07T14:57:52.868Z,4.70
2022-10-07T15:00:23.425Z,5.88
2022-10-07T15:02:53.235Z,3.40
2022-10-07T15:05:22.702Z,5.68
2022-10-07T15:07:52.415Z,4.82
2022-10-07T15:10:23.219Z,5.05
2022-10-07T15:12:51.601Z,4.43
2022-10-07T15:15:20.432Z,4.90
2022-10-07T15:17:48.938Z,4.05
2022-10-07T15:20:18.038Z,3.83
2022-10-07T15:22:46.778Z,4.38
2022-10-07T15:25:18.033Z,4.55
2022-10-07T15:27:46.543Z,4.75
2022-10-07T15:30:15.322Z,4.70
2022-10-07T15:32:44.262Z,6.15
2022-10-07T15:35:13.282Z,5.75
2022-10-07T15:37:45.810Z,14.65
2022-10-07T15:40:14.723Z,6.70
2022-10-07T15:42:45.289Z,7.13
2022-10-07T15:45:13.762Z,5.80
2022-10-07T15:47:41.923Z,7.20
2022-10-07T15:50:10.705Z,5.75
2022-10-07T15:52:38.905Z,5.40
2022-10-07T15:55:09.030Z,6.20
2022-10-07T15:57:37.222Z,5.38
2022-10-07T16:00:07.805Z,5.45
2022-10-07T16:02:36.258Z,4.63
2022-10-07T16:05:05.035Z,4.45
2022-10-07T16:07:33.222Z,5.72
2022-10-07T16:10:01.439Z,6.32
2022-10-07T16:12:29.634Z,5.82
2022-10-07T16:14:57.819Z,5.97
2022-10-07T16:17:27.735Z,7.57
2022-10-07T16:19:55.883Z,6.60
2022-10-07T16:22:24.040Z,4.40
2022-10-07T16:24:54.741Z,7.35
2022-10-07T16:27:43.303Z,7.97
2022-10-07T16:30:30.782Z,4.20
2022-10-07T16:33:00.373Z,5.35
2022-10-07T16:35:30.826Z,5.78
2022-10-07T16:37:58.993Z,5.93
2022-10-07T16:40:27.210Z,4.32
2022-10-07T16:42:55.808Z,8.00
2022-10-07T16:45:24.206Z,6.38
2022-10-07T16:47:52.464Z,5.07
2022-10-07T16:50:22.060Z,7.07
2022-10-07T16:52:50.232Z,4.18
2022-10-07T16:55:18.537Z,6.25
2022-10-07T16:57:49.006Z,5.32
2022-10-07T17:00:17.765Z,6.82
2022-10-07T17:02:45.992Z,6.03
2022-10-07T17:05:14.156Z,5.22
2022-10-07T17:07:44.188Z,5.47
2022-10-07T17:10:12.680Z,6.63
2022-10-07T17:12:40.846Z,5.25
2022-10-07T17:15:09.327Z,5.35
2022-10-07T17:17:37.565Z,6.40
2022-10-07T17:20:06.245Z,5.18
2022-10-07T17:22:35.320Z,5.68
2022-10-07T17:25:05.046Z,5.18
2022-10-07T17:27:33.251Z,6.15
2022-10-07T17:30:02.121Z,6.35
2022-10-07T17:32:30.407Z,5.30
2022-10-07T17:34:59.213Z,4.40
2022-10-07T17:37:27.543Z,6.25
2022-10-07T17:39:56.492Z,6.47
2022-10-07T17:42:25.992Z,5.38
2022-10-07T17:44:55.148Z,5.80
2022-10-07T17:47:23.308Z,5.25
2022-10-07T17:49:53.328Z,6.93
2022-10-07T17:52:26.576Z,6.82
2022-10-07T17:54:56.695Z,8.32
2022-10-07T17:57:26.517Z,7.60
2022-10-07T17:59:54.638Z,6.57
2022-10-07T18:02:22.860Z,8.65
2022-10-07T18:04:51.795Z,7.65
2022-10-07T18:07:19.987Z,6.53
2022-10-07T18:09:48.212Z,5.60
2022-10-07T18:12:33.983Z,5.72
2022-10-07T18:15:21.786Z,6.35
2022-10-07T18:17:51.483Z,6.68
2022-10-07T18:20:21.298Z,7.45
2022-10-07T18:22:54.159Z,7.63
2022-10-07T18:25:22.419Z,6.70
2022-10-07T18:27:50.768Z,8.43
2022-10-07T18:30:20.536Z,9.30
2022-10-07T18:32:48.713Z,9.02
2022-10-07T18:35:16.982Z,10.25
2022-10-07T18:37:45.711Z,7.38
2022-10-07T18:40:14.040Z,8.38
2022-10-07T18:42:42.344Z,11.18
2022-10-07T18:45:11.132Z,8.25
2022-10-07T18:47:40.687Z,8.70
2022-10-07T18:50:09.554Z,7.65
2022-10-07T18:52:37.730Z,7.72
2022-10-07T18:55:06.564Z,9.18
2022-10-07T18:57:34.740Z,7.95
2022-10-07T19:00:03.097Z,8.40
2022-10-07T19:02:31.536Z,7.03
2022-10-07T19:05:01.447Z,6.97
2022-10-07T19:07:31.107Z,7.05
2022-10-07T19:09:59.228Z,7.80
2022-10-07T19:12:44.714Z,8.68
2022-10-07T19:15:12.857Z,9.57
2022-10-07T19:17:41.005Z,7.68
2022-10-07T19:20:11.260Z,7.53
2022-10-07T19:22:39.624Z,8.63
2022-10-07T19:25:26.433Z,7.60
2022-10-07T19:27:54.833Z,7.32
2022-10-07T19:30:23.006Z,11.07
2022-10-07T19:32:53.054Z,7.57
2022-10-07T19:35:22.607Z,7.70
2022-10-07T19:37:50.768Z,10.70
2022-10-07T19:40:19.069Z,8.40
2022-10-07T19:42:47.203Z,12.05
2022-10-07T19:45:15.510Z,8.00
2022-10-07T19:47:44.092Z,8.38
2022-10-07T19:50:13.116Z,7.70
2022-10-07T19:52:42.678Z,9.10
2022-10-07T19:55:11.229Z,8.32
2022-10-07T19:57:39.994Z,7.57
2022-10-07T20:00:09.459Z,7.20
2022-10-07T20:02:37.759Z,8.85
2022-10-07T20:05:08.310Z,9.38
2022-10-07T20:07:37.199Z,7.30
2022-10-07T20:10:08.082Z,7.78
2022-10-07T20:12:36.378Z,6.97
2022-10-07T20:15:04.676Z,7.18
2022-10-07T20:17:32.843Z,8.25
2022-10-07T20:20:00.996Z,8.50
2022-10-07T20:22:29.146Z,6.78
2022-10-07T20:24:57.356Z,8.07
2022-10-07T20:27:27.294Z,11.43
2022-10-07T20:29:58.377Z,10.88
2022-10-07T20:32:27.689Z,7.65
2022-10-07T20:34:56.335Z,8.20
2022-10-07T20:37:24.527Z,8.23
2022-10-07T20:40:10.258Z,9.20
2022-10-07T20:42:44.665Z,9.70
2022-10-07T20:45:15.140Z,9.85
2022-10-07T20:47:44.420Z,10.27
2022-10-07T20:50:12.591Z,10.63
2022-10-07T20:52:40.839Z,9.07
2022-10-07T20:55:14.154Z,11.45
2022-10-07T20:57:43.825Z,10.18
2022-10-07T21:00:16.422Z,13.52
2022-10-07T21:02:45.634Z,11.02
2022-10-07T21:05:14.078Z,9.48
2022-10-07T21:07:43.000Z,9.43
2022-10-07T21:10:11.169Z,9.75
2022-10-07T21:12:40.407Z,8.23
2022-10-07T21:15:10.857Z,7.70
2022-10-07T21:17:40.726Z,7.70
2022-10-07T21:20:09.841Z,10.18
2022-10-07T21:22:38.098Z,8.82
2022-10-07T21:25:08.109Z,8.75
2022-10-07T21:27:38.432Z,8.27
2022-10-07T21:30:08.318Z,7.68
2022-10-07T21:32:37.887Z,7.60
2022-10-07T21:35:06.887Z,9.05
2022-10-07T21:37:35.054Z,6.40
2022-10-07T21:40:03.213Z,9.25
2022-10-07T21:42:31.578Z,9.40
2022-10-07T21:44:59.719Z,9.82
2022-10-07T21:47:27.890Z,8.40
2022-10-07T21:49:57.845Z,7.35
2022-10-07T21:52:25.988Z,7.63
2022-10-07T21:54:55.398Z,8.32
2022-10-07T21:57:23.583Z,9.70
2022-10-07T21:59:52.352Z,7.40
2022-10-07T22:02:20.557Z,8.60
2022-10-07T22:04:48.782Z,9.27
2022-10-07T22:07:35.860Z,8.55
2022-10-07T22:10:04.351Z,8.57
2022-10-07T22:12:32.593Z,11.18
2022-10-07T22:15:01.180Z,9.30
2022-10-07T22:17:29.335Z,9.97
2022-10-07T22:19:58.821Z,14.45
2022-10-07T22:22:28.559Z,11.47
2022-10-07T22:24:56.731Z,12.87
2022-10-07T22:27:26.030Z,12.15
2022-10-07T22:29:54.336Z,12.77
2022-10-07T22:32:22.520Z,10.82
2022-10-07T22:35:22.686Z,12.97
2022-10-07T22:37:52.278Z,13.40
2022-10-07T22:40:20.409Z,14.13
2022-10-07T22:42:49.282Z,11.80
2022-10-07T22:45:19.271Z,12.45
2022-10-07T22:47:49.769Z,11.97
2022-10-07T22:50:18.579Z,14.35
2022-10-07T22:52:47.511Z,16.10
2022-10-07T22:55:18.108Z,15.07
2022-10-07T22:57:46.292Z,14.20
2022-10-07T23:00:15.837Z,14.83
2022-10-07T23:02:44.619Z,14.87
2022-10-07T23:05:13.388Z,14.90
2022-10-07T23:07:41.560Z,17.50
2022-10-07T23:10:10.795Z,15.77
2022-10-07T23:12:40.325Z,19.17
2022-10-07T23:15:09.398Z,18.43
2022-10-07T23:17:37.595Z,16.67
2022-10-07T23:20:06.603Z,18.30
2022-10-07T23:22:35.429Z,18.30
2022-10-07T23:25:04.425Z,20.07
2022-10-07T23:27:32.739Z,17.03
2022-10-07T23:30:02.740Z,19.10
2022-10-07T23:32:31.434Z,19.07
2022-10-07T23:34:59.891Z,19.30
2022-10-07T23:37:28.128Z,19.43
2022-10-07T23:39:56.278Z,20.90
2022-10-07T23:42:24.449Z,23.17
2022-10-07T23:44:52.614Z,22.87
2022-10-07T23:47:22.545Z,22.70
2022-10-07T23:49:50.700Z,23.77
2022-10-07T23:52:19.527Z,25.27
2022-10-07T23:54:47.674Z,25.97
2022-10-07T23:57:15.823Z,23.87
2022-10-07T23:59:44.007Z,26.80
